sensor_id;sensor_type;location;lat;lon;timestamp;temperature;humidity
15967;DHT22;15175;48.154;11.534;2023-05-10T00:01:24;16.20;99.90
15967;DHT22;15175;48.154;11.534;2023-05-10T00:03:54;16.20;99.90
15967;DHT22;15175;48.154;11.534;2023-05-10T00:06:21;16.10;99.90
15967;DHT22;15175;48.154;11.534;2023-05-10T00:08:49;16.10;99.90
15967;DHT22;15175;48.154;11.534;2023-05-10T00:11:17;16.10;99.90
15967;DHT22;15175;48.154;11.534;2023-05-10T00:13:45;16.00;99.90
15967;DHT22;15175;48.154;11.534;2023-05-10T00:16:12;16.00;99.90
15967;DHT22;15175;48.154;11.534;2023-05-10T00:18:40;16.00;99.90
15967;DHT22;15175;48.154;11.534;2023-05-10T00:21:10;16.00;99.90
15967;DHT22;15175;48.154;11.534;2023-05-10T00:23:38;16.00;99.90
15967;DHT22;15175;48.154;11.534;2023-05-10T00:26:06;16.00;99.90
15967;DHT22;15175;48.154;11.534;2023-05-10T00:28:34;16.00;99.90
15967;DHT22;15175;48.154;11.534;2023-05-10T00:31:02;16.00;99.90
15967;DHT22;15175;48.154;11.534;2023-05-10T00:33:30;16.00;99.90
15967;DHT22;15175;48.154;11.534;2023-05-10T00:35:57;15.90;99.90
15967;DHT22;15175;48.154;11.534;2023-05-10T00:38:27;15.80;99.90
15967;DHT22;15175;48.154;11.534;2023-05-10T00:40:56;15.80;99.90
15967;DHT22;15175;48.154;11.534;2023-05-10T00:43:30;15.80;99.90
15967;DHT22;15175;48.154;11.534;2023-05-10T00:45:57;15.80;99.90
15967;DHT22;15175;48.154;11.534;2023-05-10T00:48:26;15.80;99.90
15967;DHT22;15175;48.154;11.534;2023-05-10T00:50:55;15.70;99.90
15967;DHT22;15175;48.154;11.534;2023-05-10T00:53:25;15.70;99.90
15967;DHT22;15175;48.154;11.534;2023-05-10T00:55:55;15.70;99.90
15967;DHT22;15175;48.154;11.534;2023-05-10T00:58:24;15.70;99.90
15967;DHT22;15175;48.154;11.534;2023-05-10T01:00:55;15.70;99.90
15967;DHT22;15175;48.154;11.534;2023-05-10T01:03:24;15.70;99.90
15967;DHT22;15175;48.154;11.534;2023-05-10T01:05:52;15.70;99.90
15967;DHT22;15175;48.154;11.534;2023-05-10T01:08:21;15.70;99.90
15967;DHT22;15175;48.154;11.534;2023-05-10T01:10:51;15.70;99.90
15967;DHT22;15175;48.154;11.534;2023-05-10T01:13:30;15.70;99.90
15967;DHT22;15175;48.154;11.534;2023-05-10T01:15:58;15.70;99.90
15967;DHT22;15175;48.154;11.534;2023-05-10T01:18:28;15.70;99.90
15967;DHT22;15175;48.154;11.534;2023-05-10T01:21:03;15.60;99.90
15967;DHT22;15175;48.154;11.534;2023-05-10T01:26:50;15.60;99.90
15967;DHT22;15175;48.154;11.534;2023-05-10T01:29:49;15.60;99.90
15967;DHT22;15175;48.154;11.534;2023-05-10T01:32:41;15.60;99.90
15967;DHT22;15175;48.154;11.534;2023-05-10T01:35:14;15.50;99.90
15967;DHT22;15175;48.154;11.534;2023-05-10T01:37:52;15.60;99.90
15967;DHT22;15175;48.154;11.534;2023-05-10T01:40:35;15.50;99.90
15967;DHT22;15175;48.154;11.534;2023-05-10T01:43:05;15.60;99.90
15967;DHT22;15175;48.154;11.534;2023-05-10T01:45:39;15.50;99.90
15967;DHT22;15175;48.154;11.534;2023-05-10T01:48:11;15.50;99.90
15967;DHT22;15175;48.154;11.534;2023-05-10T01:50:41;15.50;99.90
15967;DHT22;15175;48.154;11.534;2023-05-10T01:53:11;15.40;99.90
15967;DHT22;15175;48.154;11.534;2023-05-10T01:55:43;15.40;99.90
15967;DHT22;15175;48.154;11.534;2023-05-10T01:58:15;15.50;99.90
15967;DHT22;15175;48.154;11.534;2023-05-10T02:00:45;15.40;99.90
15967;DHT22;15175;48.154;11.534;2023-05-10T02:03:15;15.40;99.90
15967;DHT22;15175;48.154;11.534;2023-05-10T02:05:43;15.40;99.90
15967;DHT22;15175;48.154;11.534;2023-05-10T02:08:13;15.50;99.90
15967;DHT22;15175;48.154;11.534;2023-05-10T02:10:42;15.50;99.90
15967;DHT22;15175;48.154;11.534;2023-05-10T02:13:12;15.50;99.90
15967;DHT22;15175;48.154;11.534;2023-05-10T02:15:41;15.50;99.90
15967;DHT22;15175;48.154;11.534;2023-05-10T02:18:11;15.40;99.90
15967;DHT22;15175;48.154;11.534;2023-05-10T02:20:41;15.40;99.90
15967;DHT22;15175;48.154;11.534;2023-05-10T02:23:08;15.40;99.90
15967;DHT22;15175;48.154;11.534;2023-05-10T02:25:37;15.40;99.90
15967;DHT22;15175;48.154;11.534;2023-05-10T02:28:06;15.50;99.90
15967;DHT22;15175;48.154;11.534;2023-05-10T02:30:35;15.40;99.90
15967;DHT22;15175;48.154;11.534;2023-05-10T02:33:04;15.40;99.90
15967;DHT22;15175;48.154;11.534;2023-05-10T02:35:32;15.40;99.90
15967;DHT22;15175;48.154;11.534;2023-05-10T02:38:02;15.40;99.90
15967;DHT22;15175;48.154;11.534;2023-05-10T02:40:31;15.40;99.90
15967;DHT22;15175;48.154;11.534;2023-05-10T02:43:01;15.40;99.90
15967;DHT22;15175;48.154;11.534;2023-05-10T02:45:31;15.40;99.90
15967;DHT22;15175;48.154;11.534;2023-05-10T02:47:59;15.40;99.90
15967;DHT22;15175;48.154;11.534;2023-05-10T02:50:28;15.30;99.90
15967;DHT22;15175;48.154;11.534;2023-05-10T02:53:06;15.30;99.90
15967;DHT22;15175;48.154;11.534;2023-05-10T02:55:39;15.30;99.90
15967;DHT22;15175;48.154;11.534;2023-05-10T02:58:07;15.30;99.90
15967;DHT22;15175;48.154;11.534;2023-05-10T03:00:34;15.30;99.90
15967;DHT22;15175;48.154;11.534;2023-05-10T03:03:02;15.30;99.90
15967;DHT22;15175;48.154;11.534;2023-05-10T03:05:29;15.30;99.90
15967;DHT22;15175;48.154;11.534;2023-05-10T03:08:00;15.30;99.90
15967;DHT22;15175;48.154;11.534;2023-05-10T03:10:32;15.30;99.90
15967;DHT22;15175;48.154;11.534;2023-05-10T03:13:07;15.20;99.90
15967;DHT22;15175;48.154;11.534;2023-05-10T03:15:47;15.30;99.90
15967;DHT22;15175;48.154;11.534;2023-05-10T03:18:22;15.30;99.90
15967;DHT22;15175;48.154;11.534;2023-05-10T03:20:51;15.30;99.90
15967;DHT22;15175;48.154;11.534;2023-05-10T03:23:24;15.30;99.90
15967;DHT22;15175;48.154;11.534;2023-05-10T03:25:55;15.30;99.90
15967;DHT22;15175;48.154;11.534;2023-05-10T03:28:24;15.30;99.90
15967;DHT22;15175;48.154;11.534;2023-05-10T03:30:53;15.20;99.90
15967;DHT22;15175;48.154;11.534;2023-05-10T03:33:20;15.20;99.90
15967;DHT22;15175;48.154;11.534;2023-05-10T03:35:48;15.20;99.90
15967;DHT22;15175;48.154;11.534;2023-05-10T03:38:15;15.20;99.90
15967;DHT22;15175;48.154;11.534;2023-05-10T03:40:42;15.20;99.90
15967;DHT22;15175;48.154;11.534;2023-05-10T03:43:11;15.10;99.90
15967;DHT22;15175;48.154;11.534;2023-05-10T03:45:38;15.10;99.90
15967;DHT22;15175;48.154;11.534;2023-05-10T03:48:05;15.10;99.90
15967;DHT22;15175;48.154;11.534;2023-05-10T03:50:32;15.10;99.90
15967;DHT22;15175;48.154;11.534;2023-05-10T03:52:59;15.10;99.90
15967;DHT22;15175;48.154;11.534;2023-05-10T03:55:28;15.10;99.90
15967;DHT22;15175;48.154;11.534;2023-05-10T03:57:55;15.10;99.90
15967;DHT22;15175;48.154;11.534;2023-05-10T04:00:24;15.10;99.90
15967;DHT22;15175;48.154;11.534;2023-05-10T04:02:54;15.10;99.90
15967;DHT22;15175;48.154;11.534;2023-05-10T04:05:22;15.00;99.90
15967;DHT22;15175;48.154;11.534;2023-05-10T04:07:52;15.00;99.90
15967;DHT22;15175;48.154;11.534;2023-05-10T04:10:19;15.00;99.90
15967;DHT22;15175;48.154;11.534;2023-05-10T04:12:46;15.00;99.90
15967;DHT22;15175;48.154;11.534;2023-05-10T04:15:14;15.00;99.90
15967;DHT22;15175;48.154;11.534;2023-05-10T04:17:42;15.00;99.90
15967;DHT22;15175;48.154;11.534;2023-05-10T04:20:10;15.00;99.90
15967;DHT22;15175;48.154;11.534;2023-05-10T04:22:37;15.00;99.90
15967;DHT22;15175;48.154;11.534;2023-05-10T04:25:05;15.00;99.90
15967;DHT22;15175;48.154;11.534;2023-05-10T04:27:32;15.00;99.90
15967;DHT22;15175;48.154;11.534;2023-05-10T04:30:00;15.00;99.90
15967;DHT22;15175;48.154;11.534;2023-05-10T04:34:56;15.00;99.90
15967;DHT22;15175;48.154;11.534;2023-05-10T04:37:23;15.00;99.90
15967;DHT22;15175;48.154;11.534;2023-05-10T04:39:50;15.00;99.90
15967;DHT22;15175;48.154;11.534;2023-05-10T04:42:17;15.00;99.90
15967;DHT22;15175;48.154;11.534;2023-05-10T04:44:44;15.00;99.90
15967;DHT22;15175;48.154;11.534;2023-05-10T04:47:11;15.00;99.90
15967;DHT22;15175;48.154;11.534;2023-05-10T04:49:38;15.00;99.90
15967;DHT22;15175;48.154;11.534;2023-05-10T04:52:07;15.00;99.90
15967;DHT22;15175;48.154;11.534;2023-05-10T04:54:34;15.00;99.90
15967;DHT22;15175;48.154;11.534;2023-05-10T04:57:01;15.00;99.90
15967;DHT22;15175;48.154;11.534;2023-05-10T04:59:28;15.00;99.90
15967;DHT22;15175;48.154;11.534;2023-05-10T05:01:55;15.00;99.90
15967;DHT22;15175;48.154;11.534;2023-05-10T05:04:22;15.00;99.90
15967;DHT22;15175;48.154;11.534;2023-05-10T05:06:49;14.90;99.90
15967;DHT22;15175;48.154;11.534;2023-05-10T05:09:18;14.90;99.90
15967;DHT22;15175;48.154;11.534;2023-05-10T05:11:45;14.90;99.90
15967;DHT22;15175;48.154;11.534;2023-05-10T05:14:12;14.80;99.90
15967;DHT22;15175;48.154;11.534;2023-05-10T05:16:39;14.80;99.90
15967;DHT22;15175;48.154;11.534;2023-05-10T05:19:06;14.80;99.90
15967;DHT22;15175;48.154;11.534;2023-05-10T05:21:33;14.80;99.90
15967;DHT22;15175;48.154;11.534;2023-05-10T05:24:00;14.80;99.90
15967;DHT22;15175;48.154;11.534;2023-05-10T05:26:29;14.80;99.90
15967;DHT22;15175;48.154;11.534;2023-05-10T05:28:56;14.70;99.90
15967;DHT22;15175;48.154;11.534;2023-05-10T05:31:23;14.70;99.90
15967;DHT22;15175;48.154;11.534;2023-05-10T05:33:50;14.70;99.90
15967;DHT22;15175;48.154;11.534;2023-05-10T05:36:17;14.70;99.90
15967;DHT22;15175;48.154;11.534;2023-05-10T05:38:44;14.60;99.90
15967;DHT22;15175;48.154;11.534;2023-05-10T05:41:11;14.70;99.90
15967;DHT22;15175;48.154;11.534;2023-05-10T05:43:39;14.60;99.90
15967;DHT22;15175;48.154;11.534;2023-05-10T05:46:06;14.60;99.90
15967;DHT22;15175;48.154;11.534;2023-05-10T05:48:33;14.60;99.90
15967;DHT22;15175;48.154;11.534;2023-05-10T05:51:00;14.60;99.90
15967;DHT22;15175;48.154;11.534;2023-05-10T05:53:28;14.60;99.90
15967;DHT22;15175;48.154;11.534;2023-05-10T05:55:56;14.50;99.90
15967;DHT22;15175;48.154;11.534;2023-05-10T05:58:23;14.50;99.90
15967;DHT22;15175;48.154;11.534;2023-05-10T06:00:52;14.50;99.90
15967;DHT22;15175;48.154;11.534;2023-05-10T06:03:19;14.60;99.90
15967;DHT22;15175;48.154;11.534;2023-05-10T06:05:47;14.60;99.90
15967;DHT22;15175;48.154;11.534;2023-05-10T06:08:14;14.60;99.90
15967;DHT22;15175;48.154;11.534;2023-05-10T06:10:41;14.60;99.90
15967;DHT22;15175;48.154;11.534;2023-05-10T06:13:08;14.60;99.90
15967;DHT22;15175;48.154;11.534;2023-05-10T06:15:35;14.60;99.90
15967;DHT22;15175;48.154;11.534;2023-05-10T06:18:04;14.60;99.90
15967;DHT22;15175;48.154;11.534;2023-05-10T06:20:31;14.70;99.90
15967;DHT22;15175;48.154;11.534;2023-05-10T06:22:58;14.70;99.90
15967;DHT22;15175;48.154;11.534;2023-05-10T06:25:25;14.70;99.90
15967;DHT22;15175;48.154;11.534;2023-05-10T06:27:52;14.70;99.90
15967;DHT22;15175;48.154;11.534;2023-05-10T06:30:23;14.70;99.90
15967;DHT22;15175;48.154;11.534;2023-05-10T06:32:53;14.70;99.90
15967;DHT22;15175;48.154;11.534;2023-05-10T06:35:22;14.70;99.90
15967;DHT22;15175;48.154;11.534;2023-05-10T06:37:49;14.70;99.90
15967;DHT22;15175;48.154;11.534;2023-05-10T06:40:17;14.70;99.90
15967;DHT22;15175;48.154;11.534;2023-05-10T06:42:44;14.70;99.90
15967;DHT22;15175;48.154;11.534;2023-05-10T06:45:12;14.70;99.90
15967;DHT22;15175;48.154;11.534;2023-05-10T06:47:40;14.80;99.90
15967;DHT22;15175;48.154;11.534;2023-05-10T06:50:07;14.80;99.90
15967;DHT22;15175;48.154;11.534;2023-05-10T06:52:36;14.80;99.90
15967;DHT22;15175;48.154;11.534;2023-05-10T06:55:04;14.80;99.90
15967;DHT22;15175;48.154;11.534;2023-05-10T06:57:31;14.80;99.90
15967;DHT22;15175;48.154;11.534;2023-05-10T06:59:59;14.80;99.90
15967;DHT22;15175;48.154;11.534;2023-05-10T07:02:26;14.80;99.90
15967;DHT22;15175;48.154;11.534;2023-05-10T07:04:53;14.90;99.90
15967;DHT22;15175;48.154;11.534;2023-05-10T07:07:20;14.90;99.90
15967;DHT22;15175;48.154;11.534;2023-05-10T07:09:48;14.90;99.90
15967;DHT22;15175;48.154;11.534;2023-05-10T07:12:17;15.00;99.90
15967;DHT22;15175;48.154;11.534;2023-05-10T07:14:44;15.00;99.90
15967;DHT22;15175;48.154;11.534;2023-05-10T07:17:11;15.00;99.90
15967;DHT22;15175;48.154;11.534;2023-05-10T07:19:38;15.10;99.90
15967;DHT22;15175;48.154;11.534;2023-05-10T07:22:05;15.10;99.90
15967;DHT22;15175;48.154;11.534;2023-05-10T07:24:32;15.20;99.90
15967;DHT22;15175;48.154;11.534;2023-05-10T07:27:01;15.30;99.90
15967;DHT22;15175;48.154;11.534;2023-05-10T07:29:28;15.40;99.90
15967;DHT22;15175;48.154;11.534;2023-05-10T07:31:55;15.60;99.90
15967;DHT22;15175;48.154;11.534;2023-05-10T07:34:22;15.60;99.90
15967;DHT22;15175;48.154;11.534;2023-05-10T07:36:49;15.70;99.90
15967;DHT22;15175;48.154;11.534;2023-05-10T07:39:16;15.70;99.90
15967;DHT22;15175;48.154;11.534;2023-05-10T07:41:43;15.70;99.90
15967;DHT22;15175;48.154;11.534;2023-05-10T07:44:11;15.70;99.90
15967;DHT22;15175;48.154;11.534;2023-05-10T07:46:38;15.80;99.90
15967;DHT22;15175;48.154;11.534;2023-05-10T07:49:06;16.00;99.90
15967;DHT22;15175;48.154;11.534;2023-05-10T07:51:33;16.20;99.90
15967;DHT22;15175;48.154;11.534;2023-05-10T07:54:00;16.40;99.90
15967;DHT22;15175;48.154;11.534;2023-05-10T07:56:29;16.50;99.90
15967;DHT22;15175;48.154;11.534;2023-05-10T07:58:57;16.70;99.90
15967;DHT22;15175;48.154;11.534;2023-05-10T08:01:26;16.70;99.90
15967;DHT22;15175;48.154;11.534;2023-05-10T08:03:53;16.80;99.90
15967;DHT22;15175;48.154;11.534;2023-05-10T08:06:21;16.90;99.90
15967;DHT22;15175;48.154;11.534;2023-05-10T08:08:48;17.00;99.90
15967;DHT22;15175;48.154;11.534;2023-05-10T08:11:16;17.00;99.90
15967;DHT22;15175;48.154;11.534;2023-05-10T08:13:43;17.10;99.90
15967;DHT22;15175;48.154;11.534;2023-05-10T08:16:10;17.10;99.90
15967;DHT22;15175;48.154;11.534;2023-05-10T08:18:39;17.20;99.90
15967;DHT22;15175;48.154;11.534;2023-05-10T08:21:06;17.20;99.90
15967;DHT22;15175;48.154;11.534;2023-05-10T08:23:34;17.20;99.90
15967;DHT22;15175;48.154;11.534;2023-05-10T08:26:01;17.30;99.90
15967;DHT22;15175;48.154;11.534;2023-05-10T08:28:28;17.40;99.90
15967;DHT22;15175;48.154;11.534;2023-05-10T08:30:55;17.40;99.90
15967;DHT22;15175;48.154;11.534;2023-05-10T08:33:22;17.40;99.90
15967;DHT22;15175;48.154;11.534;2023-05-10T08:35:50;17.40;99.90
15967;DHT22;15175;48.154;11.534;2023-05-10T08:38:18;17.40;99.90
15967;DHT22;15175;48.154;11.534;2023-05-10T08:40:45;17.40;99.90
15967;DHT22;15175;48.154;11.534;2023-05-10T08:43:13;17.40;99.90
15967;DHT22;15175;48.154;11.534;2023-05-10T08:45:42;17.30;99.90
15967;DHT22;15175;48.154;11.534;2023-05-10T08:48:11;17.30;99.90
15967;DHT22;15175;48.154;11.534;2023-05-10T08:50:40;17.30;99.90
15967;DHT22;15175;48.154;11.534;2023-05-10T08:53:10;17.30;99.90
15967;DHT22;15175;48.154;11.534;2023-05-10T08:55:39;17.30;99.90
15967;DHT22;15175;48.154;11.534;2023-05-10T08:58:08;17.30;99.90
15967;DHT22;15175;48.154;11.534;2023-05-10T09:00:36;17.20;99.90
15967;DHT22;15175;48.154;11.534;2023-05-10T09:03:04;17.20;99.90
15967;DHT22;15175;48.154;11.534;2023-05-10T09:05:32;17.20;99.90
15967;DHT22;15175;48.154;11.534;2023-05-10T09:07:59;17.10;99.90
15967;DHT22;15175;48.154;11.534;2023-05-10T09:10:29;17.10;99.90
15967;DHT22;15175;48.154;11.534;2023-05-10T09:12:57;17.20;99.90
15967;DHT22;15175;48.154;11.534;2023-05-10T09:15:24;17.50;99.90
15967;DHT22;15175;48.154;11.534;2023-05-10T09:17:51;17.80;99.90
15967;DHT22;15175;48.154;11.534;2023-05-10T09:20:19;18.00;99.90
15967;DHT22;15175;48.154;11.534;2023-05-10T09:22:46;18.10;99.90
15967;DHT22;15175;48.154;11.534;2023-05-10T09:25:15;18.20;99.90
15967;DHT22;15175;48.154;11.534;2023-05-10T09:27:45;18.20;99.90
15967;DHT22;15175;48.154;11.534;2023-05-10T09:30:16;18.10;99.90
15967;DHT22;15175;48.154;11.534;2023-05-10T09:32:44;18.00;99.90
15967;DHT22;15175;48.154;11.534;2023-05-10T09:35:13;18.00;99.90
15967;DHT22;15175;48.154;11.534;2023-05-10T09:37:41;17.90;99.90
15967;DHT22;15175;48.154;11.534;2023-05-10T09:40:12;17.80;99.90
15967;DHT22;15175;48.154;11.534;2023-05-10T09:42:41;17.80;99.90
15967;DHT22;15175;48.154;11.534;2023-05-10T09:45:10;17.80;99.90
15967;DHT22;15175;48.154;11.534;2023-05-10T09:47:37;17.80;99.90
15967;DHT22;15175;48.154;11.534;2023-05-10T09:50:05;17.80;99.90
15967;DHT22;15175;48.154;11.534;2023-05-10T09:52:46;17.90;99.90
15967;DHT22;15175;48.154;11.534;2023-05-10T09:55:14;18.00;99.90
15967;DHT22;15175;48.154;11.534;2023-05-10T09:57:41;18.10;99.90
15967;DHT22;15175;48.154;11.534;2023-05-10T10:00:10;18.10;99.90
15967;DHT22;15175;48.154;11.534;2023-05-10T10:02:43;18.10;99.90
15967;DHT22;15175;48.154;11.534;2023-05-10T10:05:11;18.10;99.90
15967;DHT22;15175;48.154;11.534;2023-05-10T10:07:39;18.10;99.90
15967;DHT22;15175;48.154;11.534;2023-05-10T10:10:07;18.00;99.90
15967;DHT22;15175;48.154;11.534;2023-05-10T10:12:37;17.90;99.90
15967;DHT22;15175;48.154;11.534;2023-05-10T10:15:05;17.90;99.90
15967;DHT22;15175;48.154;11.534;2023-05-10T10:17:36;18.00;99.90
15967;DHT22;15175;48.154;11.534;2023-05-10T10:20:05;18.10;99.90
15967;DHT22;15175;48.154;11.534;2023-05-10T10:22:33;18.20;99.90
15967;DHT22;15175;48.154;11.534;2023-05-10T10:25:00;18.20;99.90
15967;DHT22;15175;48.154;11.534;2023-05-10T10:27:35;18.10;99.90
15967;DHT22;15175;48.154;11.534;2023-05-10T10:30:13;18.10;99.90
15967;DHT22;15175;48.154;11.534;2023-05-10T10:33:06;18.20;99.90
15967;DHT22;15175;48.154;11.534;2023-05-10T10:35:36;18.20;99.90
15967;DHT22;15175;48.154;11.534;2023-05-10T10:38:03;18.30;99.90
15967;DHT22;15175;48.154;11.534;2023-05-10T10:40:31;18.30;99.90
15967;DHT22;15175;48.154;11.534;2023-05-10T10:43:21;18.30;99.90
15967;DHT22;15175;48.154;11.534;2023-05-10T10:46:09;18.40;99.90
15967;DHT22;15175;48.154;11.534;2023-05-10T10:48:38;18.40;99.90
15967;DHT22;15175;48.154;11.534;2023-05-10T10:51:05;18.40;99.90
15967;DHT22;15175;48.154;11.534;2023-05-10T10:53:33;18.40;99.90
15967;DHT22;15175;48.154;11.534;2023-05-10T10:56:07;18.50;99.90
15967;DHT22;15175;48.154;11.534;2023-05-10T10:58:35;18.50;99.90
15967;DHT22;15175;48.154;11.534;2023-05-10T11:01:11;18.50;99.90
15967;DHT22;15175;48.154;11.534;2023-05-10T11:03:41;18.40;99.90
15967;DHT22;15175;48.154;11.534;2023-05-10T11:06:29;18.40;99.90
15967;DHT22;15175;48.154;11.534;2023-05-10T11:08:57;18.30;99.90
15967;DHT22;15175;48.154;11.534;2023-05-10T11:11:24;18.30;99.90
15967;DHT22;15175;48.154;11.534;2023-05-10T11:13:51;18.20;99.90
15967;DHT22;15175;48.154;11.534;2023-05-10T11:16:19;18.20;99.90
15967;DHT22;15175;48.154;11.534;2023-05-10T11:18:58;18.20;99.90
15967;DHT22;15175;48.154;11.534;2023-05-10T11:21:27;18.20;99.90
15967;DHT22;15175;48.154;11.534;2023-05-10T11:23:55;18.10;99.90
15967;DHT22;15175;48.154;11.534;2023-05-10T11:26:23;18.10;99.90
15967;DHT22;15175;48.154;11.534;2023-05-10T11:28:52;18.10;99.90
15967;DHT22;15175;48.154;11.534;2023-05-10T11:31:21;17.90;99.90
15967;DHT22;15175;48.154;11.534;2023-05-10T11:33:50;17.80;99.90
15967;DHT22;15175;48.154;11.534;2023-05-10T11:36:21;17.70;99.90
15967;DHT22;15175;48.154;11.534;2023-05-10T11:38:48;17.70;99.90
15967;DHT22;15175;48.154;11.534;2023-05-10T11:41:17;17.50;99.90
15967;DHT22;15175;48.154;11.534;2023-05-10T11:43:46;17.40;99.90
15967;DHT22;15175;48.154;11.534;2023-05-10T11:46:14;17.30;99.90
15967;DHT22;15175;48.154;11.534;2023-05-10T11:48:42;17.30;99.90
15967;DHT22;15175;48.154;11.534;2023-05-10T11:51:10;17.20;99.90
15967;DHT22;15175;48.154;11.534;2023-05-10T11:53:39;17.10;99.90
15967;DHT22;15175;48.154;11.534;2023-05-10T11:56:07;17.00;99.90
15967;DHT22;15175;48.154;11.534;2023-05-10T11:58:35;17.00;99.90
15967;DHT22;15175;48.154;11.534;2023-05-10T12:01:03;16.90;99.90
15967;DHT22;15175;48.154;11.534;2023-05-10T12:03:35;16.90;99.90
15967;DHT22;15175;48.154;11.534;2023-05-10T12:06:03;16.70;99.90
15967;DHT22;15175;48.154;11.534;2023-05-10T12:08:31;16.70;99.90
15967;DHT22;15175;48.154;11.534;2023-05-10T12:11:06;16.60;99.90
15967;DHT22;15175;48.154;11.534;2023-05-10T12:13:37;16.50;99.90
15967;DHT22;15175;48.154;11.534;2023-05-10T12:16:12;16.40;99.90
15967;DHT22;15175;48.154;11.534;2023-05-10T12:18:40;16.30;99.90
15967;DHT22;15175;48.154;11.534;2023-05-10T12:21:09;16.30;99.90
15967;DHT22;15175;48.154;11.534;2023-05-10T12:23:37;16.20;99.90
15967;DHT22;15175;48.154;11.534;2023-05-10T12:26:07;16.20;99.90
15967;DHT22;15175;48.154;11.534;2023-05-10T12:28:35;16.10;99.90
15967;DHT22;15175;48.154;11.534;2023-05-10T12:31:02;16.00;99.90
15967;DHT22;15175;48.154;11.534;2023-05-10T12:33:36;16.00;99.90
15967;DHT22;15175;48.154;11.534;2023-05-10T12:36:05;15.90;99.90
15967;DHT22;15175;48.154;11.534;2023-05-10T12:38:33;15.90;99.90
15967;DHT22;15175;48.154;11.534;2023-05-10T12:41:01;15.90;99.90
15967;DHT22;15175;48.154;11.534;2023-05-10T12:43:30;15.90;99.90
15967;DHT22;15175;48.154;11.534;2023-05-10T12:45:57;15.80;99.90
15967;DHT22;15175;48.154;11.534;2023-05-10T12:48:24;15.80;99.90
15967;DHT22;15175;48.154;11.534;2023-05-10T12:50:51;15.80;99.90
15967;DHT22;15175;48.154;11.534;2023-05-10T12:53:18;15.80;99.90
15967;DHT22;15175;48.154;11.534;2023-05-10T12:55:45;15.70;99.90
15967;DHT22;15175;48.154;11.534;2023-05-10T12:58:13;15.70;99.90
15967;DHT22;15175;48.154;11.534;2023-05-10T13:00:42;15.70;99.90
15967;DHT22;15175;48.154;11.534;2023-05-10T13:03:09;15.70;99.90
15967;DHT22;15175;48.154;11.534;2023-05-10T13:05:36;15.70;99.90
15967;DHT22;15175;48.154;11.534;2023-05-10T13:08:03;15.70;99.90
15967;DHT22;15175;48.154;11.534;2023-05-10T13:10:31;15.80;99.90
15967;DHT22;15175;48.154;11.534;2023-05-10T13:12:58;15.80;99.90
15967;DHT22;15175;48.154;11.534;2023-05-10T13:15:26;15.80;99.90
15967;DHT22;15175;48.154;11.534;2023-05-10T13:17:54;15.80;99.90
15967;DHT22;15175;48.154;11.534;2023-05-10T13:20:21;15.80;99.90
15967;DHT22;15175;48.154;11.534;2023-05-10T13:22:49;15.80;99.90
15967;DHT22;15175;48.154;11.534;2023-05-10T13:25:16;15.80;99.90
15967;DHT22;15175;48.154;11.534;2023-05-10T13:27:43;15.80;99.90
15967;DHT22;15175;48.154;11.534;2023-05-10T13:30:11;15.80;99.90
15967;DHT22;15175;48.154;11.534;2023-05-10T13:32:38;15.80;99.90
15967;DHT22;15175;48.154;11.534;2023-05-10T13:35:08;15.80;99.90
15967;DHT22;15175;48.154;11.534;2023-05-10T13:37:35;15.70;99.90
15967;DHT22;15175;48.154;11.534;2023-05-10T13:40:03;15.70;99.90
15967;DHT22;15175;48.154;11.534;2023-05-10T13:42:31;15.70;99.90
15967;DHT22;15175;48.154;11.534;2023-05-10T13:44:59;15.70;99.90
15967;DHT22;15175;48.154;11.534;2023-05-10T13:47:26;15.70;99.90
15967;DHT22;15175;48.154;11.534;2023-05-10T13:49:53;15.60;99.90
15967;DHT22;15175;48.154;11.534;2023-05-10T13:52:22;15.70;99.90
15967;DHT22;15175;48.154;11.534;2023-05-10T13:54:49;15.60;99.90
15967;DHT22;15175;48.154;11.534;2023-05-10T13:57:18;15.60;99.90
15967;DHT22;15175;48.154;11.534;2023-05-10T13:59:44;15.60;99.90
15967;DHT22;15175;48.154;11.534;2023-05-10T14:02:12;15.60;99.90
15967;DHT22;15175;48.154;11.534;2023-05-10T14:04:39;15.60;99.90
15967;DHT22;15175;48.154;11.534;2023-05-10T14:07:06;15.60;99.90
15967;DHT22;15175;48.154;11.534;2023-05-10T14:09:34;15.60;99.90
15967;DHT22;15175;48.154;11.534;2023-05-10T14:12:01;15.60;99.90
15967;DHT22;15175;48.154;11.534;2023-05-10T14:14:29;15.50;99.90
15967;DHT22;15175;48.154;11.534;2023-05-10T14:16:56;15.50;99.90
15967;DHT22;15175;48.154;11.534;2023-05-10T14:19:23;15.50;99.90
15967;DHT22;15175;48.154;11.534;2023-05-10T14:21:50;15.50;99.90
15967;DHT22;15175;48.154;11.534;2023-05-10T14:24:18;15.50;99.90
15967;DHT22;15175;48.154;11.534;2023-05-10T14:26:46;15.40;99.90
15967;DHT22;15175;48.154;11.534;2023-05-10T14:29:13;15.40;99.90
15967;DHT22;15175;48.154;11.534;2023-05-10T14:31:40;15.40;99.90
15967;DHT22;15175;48.154;11.534;2023-05-10T14:34:07;15.40;99.90
15967;DHT22;15175;48.154;11.534;2023-05-10T14:36:34;15.40;99.90
15967;DHT22;15175;48.154;11.534;2023-05-10T14:39:02;15.40;99.90
15967;DHT22;15175;48.154;11.534;2023-05-10T14:41:29;15.30;99.90
15967;DHT22;15175;48.154;11.534;2023-05-10T14:43:58;15.30;99.90
15967;DHT22;15175;48.154;11.534;2023-05-10T14:46:25;15.30;99.90
15967;DHT22;15175;48.154;11.534;2023-05-10T14:48:52;15.20;99.90
15967;DHT22;15175;48.154;11.534;2023-05-10T14:51:19;15.20;99.90
15967;DHT22;15175;48.154;11.534;2023-05-10T14:53:47;15.20;99.90
15967;DHT22;15175;48.154;11.534;2023-05-10T14:56:15;15.10;99.90
15967;DHT22;15175;48.154;11.534;2023-05-10T14:58:42;15.10;99.90
15967;DHT22;15175;48.154;11.534;2023-05-10T15:01:11;15.10;99.90
15967;DHT22;15175;48.154;11.534;2023-05-10T15:03:39;15.10;99.90
15967;DHT22;15175;48.154;11.534;2023-05-10T15:06:08;15.10;99.90
15967;DHT22;15175;48.154;11.534;2023-05-10T15:08:35;15.10;99.90
15967;DHT22;15175;48.154;11.534;2023-05-10T15:11:02;15.10;99.90
15967;DHT22;15175;48.154;11.534;2023-05-10T15:13:29;15.10;99.90
15967;DHT22;15175;48.154;11.534;2023-05-10T15:15:56;15.10;99.90
15967;DHT22;15175;48.154;11.534;2023-05-10T15:18:24;15.00;99.90
15967;DHT22;15175;48.154;11.534;2023-05-10T15:20:51;15.00;99.90
15967;DHT22;15175;48.154;11.534;2023-05-10T15:23:18;15.00;99.90
15967;DHT22;15175;48.154;11.534;2023-05-10T15:25:45;14.90;99.90
15967;DHT22;15175;48.154;11.534;2023-05-10T15:28:15;14.90;99.90
15967;DHT22;15175;48.154;11.534;2023-05-10T15:30:42;14.90;99.90